Time;durP1;ratioP1;P1;durP2;ratioP2;P2;SDS_P1;SDS_P2;PMS_P1;PMS_P2;Temp;Humidity;BMP_temperature;BMP_pressure;BME280_temperature;BME280_humidity;BME280_pressure;Samples;Min_cycle;Max_cycle;Signal;HPM_P1;HPM_P2
2022/04/02 00:01:41;;;;;;;4.70;2.53;;;;;;;1.05;72.71;101413.84;5048785;28;20087;-69
2022/04/02 00:04:08;;;;;;;6.97;3.30;;;;;;;1.09;72.14;101429.22;5049012;28;20029;-70
2022/04/02 00:06:34;;;;;;;2.38;2.17;;;;;;;1.09;71.92;101423.97;5048939;28;20017;-70
2022/04/02 00:09:00;;;;;;;5.88;2.40;;;;;;;1.12;71.40;101408.94;5048984;28;20071;-69
2022/04/02 00:11:25;;;;;;;6.10;2.05;;;;;;;1.19;71.16;101425.88;5048993;28;20069;-70
2022/04/02 00:13:50;;;;;;;6.65;2.50;;;;;;;1.19;70.86;101429.34;5048991;28;20036;-70
2022/04/02 00:16:16;;;;;;;4.15;1.90;;;;;;;1.17;71.31;101426.00;5048807;28;20017;-70
2022/04/02 00:18:42;;;;;;;2.67;1.90;;;;;;;1.15;71.12;101427.06;5047589;28;20119;-70
2022/04/02 00:21:08;;;;;;;3.35;1.95;;;;;;;1.14;70.99;101430.66;5048033;28;20029;-70
2022/04/02 00:23:36;;;;;;;5.53;2.30;;;;;;;1.12;71.97;101428.13;5048570;28;20035;-70
2022/04/02 00:26:06;;;;;;;5.22;2.50;;;;;;;1.12;71.74;101436.03;5048294;28;20025;-69
2022/04/02 00:28:32;;;;;;;7.38;2.65;;;;;;;1.07;71.88;101433.78;5048795;28;20116;-70
2022/04/02 00:30:57;;;;;;;5.10;2.42;;;;;;;1.02;72.48;101430.69;5049492;28;20082;-70
2022/04/02 00:33:22;;;;;;;5.10;2.53;;;;;;;1.06;72.24;101441.75;5034654;28;20039;-70
2022/04/02 00:35:48;;;;;;;5.85;2.17;;;;;;;1.05;71.71;101433.06;5051375;28;20033;-70
2022/04/02 00:38:14;;;;;;;4.35;2.15;;;;;;;1.08;72.04;101438.06;5052636;28;20033;-70
2022/04/02 00:40:42;;;;;;;10.05;2.83;;;;;;;1.05;72.45;101426.97;5052477;28;20045;-70
2022/04/02 00:43:28;;;;;;;6.03;2.78;;;;;;;1.04;73.00;101434.00;5052597;28;20075;-70
2022/04/02 00:45:56;;;;;;;5.18;3.47;;;;;;;1.01;72.68;101428.16;5052133;28;20041;-70
2022/04/02 00:48:23;;;;;;;7.10;2.75;;;;;;;0.98;72.52;101423.16;5052467;28;20029;-70
2022/04/02 00:50:55;;;;;;;6.55;2.38;;;;;;;0.92;72.72;101407.84;5051654;28;20037;-70
2022/04/02 00:53:21;;;;;;;;;;;;;;;0.98;73.12;101425.78;5052950;28;20025;-70
2022/04/02 00:55:47;;;;;;;4.40;2.40;;;;;;;0.88;73.09;101425.66;5052248;28;19923;-70
2022/04/02 00:58:12;;;;;;;7.03;2.65;;;;;;;0.89;72.97;101427.31;5052345;28;20037;-70
2022/04/02 01:00:40;;;;;;;5.43;3.15;;;;;;;0.89;72.83;101429.94;5051841;28;20035;-70
2022/04/02 01:03:07;;;;;;;5.00;2.78;;;;;;;0.87;73.26;101429.25;5051686;28;20028;-70
2022/04/02 01:05:34;;;;;;;4.43;2.20;;;;;;;0.84;73.73;101429.50;5051709;28;20021;-70
2022/04/02 01:08:01;;;;;;;4.28;2.00;;;;;;;0.84;73.07;101430.31;5052051;28;20029;-70
2022/04/02 01:10:27;;;;;;;4.78;2.50;;;;;;;0.78;73.66;101420.28;5051717;28;20485;-70
2022/04/02 01:12:52;;;;;;;6.18;2.85;;;;;;;0.81;73.75;101434.94;5051799;28;20024;-70
2022/04/02 01:15:18;;;;;;;5.75;2.40;;;;;;;0.75;73.77;101431.00;5051874;28;20032;-70
2022/04/02 01:17:43;;;;;;;6.55;2.42;;;;;;;0.79;73.75;101437.72;5051864;28;20039;-70
2022/04/02 01:20:10;;;;;;;8.10;2.65;;;;;;;0.75;73.49;101427.56;5051854;28;20124;-70
2022/04/02 01:22:36;;;;;;;6.72;2.63;;;;;;;0.77;73.93;101433.53;5051401;28;20033;-70
2022/04/02 01:25:05;;;;;;;5.50;3.00;;;;;;;0.73;73.89;101432.09;5051374;28;20028;-70
2022/04/02 01:27:30;;;;;;;3.58;1.98;;;;;;;0.75;74.01;101430.19;5051553;28;20037;-70
2022/04/02 01:29:56;;;;;;;9.35;4.47;;;;;;;0.75;74.06;101427.56;5051663;28;20106;-70
2022/04/02 01:32:22;;;;;;;8.70;3.10;;;;;;;0.74;73.67;101425.91;5051614;28;20032;-70
2022/04/02 01:34:47;;;;;;;5.43;2.33;;;;;;;0.75;74.18;101432.81;5051535;28;20056;-70
2022/04/02 01:37:19;;;;;;;5.95;2.90;;;;;;;0.72;74.96;101423.38;5051518;28;20483;-70
2022/04/02 01:39:44;;;;;;;3.83;2.78;;;;;;;0.69;74.40;101422.78;5051479;28;20047;-70
2022/04/02 01:42:10;;;;;;;4.07;2.13;;;;;;;0.67;74.86;101419.44;5050487;28;20049;-70
2022/04/02 01:44:35;;;;;;;5.57;2.65;;;;;;;0.69;74.33;101422.78;5051347;28;20033;-70
2022/04/02 01:47:02;;;;;;;5.85;2.50;;;;;;;0.68;74.59;101429.81;5051447;28;20021;-70
2022/04/02 01:49:28;;;;;;;4.35;2.03;;;;;;;0.69;73.81;101430.66;5051506;28;20029;-70
2022/04/02 01:51:54;;;;;;;5.25;2.30;;;;;;;0.62;74.14;101423.25;5050941;28;20119;-70
2022/04/02 01:54:20;;;;;;;3.63;2.10;;;;;;;0.64;73.35;101433.63;5051306;28;20116;-70
2022/04/02 01:56:47;;;;;;;4.75;2.22;;;;;;;0.68;73.24;101440.31;5050886;28;20082;-70
2022/04/02 01:59:12;;;;;;;6.95;2.85;;;;;;;0.66;73.95;101437.00;5050970;28;20052;-70
2022/04/02 02:01:38;;;;;;;5.28;2.58;;;;;;;0.70;72.81;101435.78;5051048;28;20365;-70
2022/04/02 02:04:03;;;;;;;5.18;2.33;;;;;;;0.73;72.22;101443.41;5050993;28;20037;-70
2022/04/02 02:06:29;;;;;;;2.75;1.45;;;;;;;0.75;71.95;101443.31;5050900;28;20059;-70
2022/04/02 02:08:55;;;;;;;7.80;2.92;;;;;;;0.75;71.70;101440.69;5050753;28;20032;-70
2022/04/02 02:11:21;;;;;;;2.92;1.92;;;;;;;0.78;71.98;101446.53;5050975;28;20508;-70
2022/04/02 02:13:46;;;;;;;6.93;3.40;;;;;;;0.77;71.68;101454.53;5050737;28;20053;-70
2022/04/02 02:16:12;;;;;;;5.32;2.83;;;;;;;0.77;71.10;101452.75;5050673;28;20105;-70
2022/04/02 02:18:37;;;;;;;4.65;2.33;;;;;;;0.82;71.42;101444.50;5050785;28;20086;-70
2022/04/02 02:21:03;;;;;;;5.10;2.83;;;;;;;0.79;71.96;101460.50;5050350;28;20937;-69
2022/04/02 02:23:28;;;;;;;6.05;2.40;;;;;;;0.76;71.33;101452.84;5050386;28;20036;-70
2022/04/02 02:25:53;;;;;;;5.03;2.17;;;;;;;0.75;72.02;101448.56;5049901;28;20029;-69
2022/04/02 02:28:19;;;;;;;7.53;2.92;;;;;;;0.75;71.87;101444.13;5050823;28;20040;-70
2022/04/02 02:30:44;;;;;;;2.95;1.80;;;;;;;0.77;70.69;101454.53;5050282;28;20029;-69
2022/04/02 02:35:54;;;;;;;4.22;2.20;;;;;;;0.79;71.44;101448.22;5050326;28;20537;-69
2022/04/02 02:38:20;;;;;;;8.70;3.17;;;;;;;0.82;70.55;101466.34;5050341;28;20037;-69
2022/04/02 02:40:47;;;;;;;4.20;2.22;;;;;;;0.82;70.25;101452.41;5049397;28;20110;-71
2022/04/02 02:43:14;;;;;;;4.55;2.33;;;;;;;0.92;69.50;101457.75;5050213;28;20036;-72
2022/04/02 02:45:39;;;;;;;8.65;2.33;;;;;;;0.91;69.10;101456.91;5050251;28;20067;-69
2022/04/02 02:48:05;;;;;;;4.40;1.83;;;;;;;0.93;68.94;101473.41;5050173;28;20500;-71
2022/04/02 02:50:30;;;;;;;5.18;2.45;;;;;;;0.92;68.54;101458.59;5049648;28;20028;-69
2022/04/02 02:52:56;;;;;;;2.45;2.17;;;;;;;0.98;68.98;101454.66;5049482;28;20346;-69
2022/04/02 02:55:22;;;;;;;3.42;2.22;;;;;;;1.01;67.82;101459.69;5049887;28;20029;-71
2022/04/02 02:57:47;;;;;;;2.47;1.65;;;;;;;1.01;68.03;101454.41;5049676;28;20037;-71
2022/04/02 03:00:15;;;;;;;2.88;1.95;;;;;;;0.98;67.82;101452.88;5048704;28;20033;-72
2022/04/02 03:02:40;;;;;;;4.95;2.00;;;;;;;1.02;67.58;101451.69;5049876;28;20037;-71
2022/04/02 03:05:10;;;;;;;1.98;1.25;;;;;;;0.98;67.86;101450.25;5049727;28;20044;-71
2022/04/02 03:07:49;;;;;;;3.97;2.10;;;;;;;0.99;67.60;101451.06;5049701;28;20392;-71
2022/04/02 03:10:17;;;;;;;2.92;1.85;;;;;;;1.03;66.67;101457.78;5049460;28;20705;-71
2022/04/02 03:12:42;;;;;;;4.68;2.35;;;;;;;1.03;67.26;101452.53;5049900;28;20143;-69
2022/04/02 03:15:09;;;;;;;5.43;2.65;;;;;;;1.05;67.07;101453.25;5049799;28;20705;-71
2022/04/02 03:17:34;;;;;;;6.00;2.13;;;;;;;1.11;66.26;101452.75;5049794;28;20036;-72
2022/04/02 03:20:00;;;;;;;4.10;2.22;;;;;;;1.06;66.34;101445.22;5049720;28;20047;-70
2022/04/02 03:22:26;;;;;;;4.68;2.92;;;;;;;1.13;65.56;101453.47;5049504;28;20024;-70
2022/04/02 03:24:52;;;;;;;5.20;2.28;;;;;;;1.20;66.26;101465.16;5048822;28;20061;-69
2022/04/02 03:27:18;;;;;;;6.28;2.00;;;;;;;1.16;65.58;101471.63;5047647;28;20075;-69
2022/04/02 03:29:43;;;;;;;2.35;1.80;;;;;;;1.18;65.39;101472.34;5047884;28;20431;-69
2022/04/02 03:32:08;;;;;;;3.90;2.20;;;;;;;1.13;65.66;101478.88;5049259;28;20021;-69
2022/04/02 03:34:34;;;;;;;3.28;1.98;;;;;;;1.09;65.93;101471.25;5049278;28;20060;-69
2022/04/02 03:36:59;;;;;;;5.95;2.97;;;;;;;1.09;65.87;101467.78;5049320;28;20091;-72
2022/04/02 03:39:25;;;;;;;2.72;1.75;;;;;;;1.17;65.54;101475.91;5049385;28;20028;-69
2022/04/02 03:41:53;;;;;;;2.95;1.65;;;;;;;1.09;65.58;101465.16;5048788;28;20473;-71
2022/04/02 03:44:19;;;;;;;5.72;2.08;;;;;;;1.03;66.15;101471.72;5049299;28;20032;-69
2022/04/02 03:49:28;;;;;;;3.25;1.50;;;;;;;1.08;65.75;101481.88;5049329;28;20048;-69
2022/04/02 03:51:53;;;;;;;3.95;2.13;;;;;;;1.06;65.87;101481.16;5049250;28;20047;-70
2022/04/02 03:54:19;;;;;;;7.40;2.55;;;;;;;1.03;66.31;101482.25;5047986;28;20061;-70
2022/04/02 03:56:44;;;;;;;2.95;1.75;;;;;;;1.02;66.06;101477.09;5048864;28;20531;-70
2022/04/02 03:59:11;;;;;;;4.00;2.13;;;;;;;0.98;67.09;101491.44;5049261;28;20484;-70
2022/04/02 04:01:37;;;;;;;3.25;2.00;;;;;;;0.92;68.60;101489.25;5049073;28;20033;-70
2022/04/02 04:04:04;;;;;;;7.80;2.65;;;;;;;0.86;69.00;101495.81;5047388;28;20068;-70
2022/04/02 04:06:29;;;;;;;5.28;2.53;;;;;;;0.74;69.35;101488.91;5052103;28;20025;-70
2022/04/02 04:08:56;;;;;;;5.68;2.25;;;;;;;0.73;70.08;101495.91;5051929;28;20047;-70
2022/04/02 04:11:23;;;;;;;4.65;1.77;;;;;;;0.68;70.63;101511.19;5051994;28;20067;-70
2022/04/02 04:13:48;;;;;;;3.03;2.13;;;;;;;0.60;70.67;101489.94;5052756;28;20080;-70
2022/04/02 04:16:14;;;;;;;2.65;1.77;;;;;;;0.61;70.91;101505.56;5052604;28;20675;-70
2022/04/02 04:18:39;;;;;;;7.70;2.40;;;;;;;0.58;71.12;101503.19;5053134;28;20532;-70
2022/04/02 04:21:05;;;;;;;5.05;2.67;;;;;;;0.57;71.03;101504.13;5052619;28;20124;-70
2022/04/02 04:23:30;;;;;;;3.40;2.60;;;;;;;0.55;71.33;101502.56;5052313;28;20526;-70
2022/04/02 04:25:56;;;;;;;6.43;2.20;;;;;;;0.51;72.02;101512.47;5052720;28;20032;-70
2022/04/02 04:28:21;;;;;;;5.00;2.35;;;;;;;0.48;72.54;101509.25;5052476;28;20034;-70
2022/04/02 04:30:48;;;;;;;3.70;2.20;;;;;;;0.42;72.51;101514.00;5052256;28;20119;-70
2022/04/02 04:33:14;;;;;;;8.32;2.72;;;;;;;0.39;72.78;101508.97;5052783;28;20032;-70
2022/04/02 04:35:40;;;;;;;5.60;2.83;;;;;;;0.33;73.39;101508.59;5052567;28;20067;-70
2022/04/02 04:38:06;;;;;;;4.47;2.15;;;;;;;0.31;74.10;101508.69;5052890;28;20469;-70
2022/04/02 04:40:32;;;;;;;4.88;2.30;;;;;;;0.30;73.01;101506.19;5052236;28;20041;-70
2022/04/02 04:42:58;;;;;;;3.72;2.35;;;;;;;0.24;73.35;101511.88;5052520;28;20111;-70
2022/04/02 04:45:23;;;;;;;4.57;2.65;;;;;;;0.25;73.23;101514.41;5051338;28;20032;-70
2022/04/02 04:47:49;;;;;;;2.40;2.20;;;;;;;0.25;73.06;101510.94;5052271;28;20040;-70
2022/04/02 04:50:14;;;;;;;7.53;3.63;;;;;;;0.26;73.13;101523.09;5052468;28;20037;-70
2022/04/02 04:52:40;;;;;;;3.13;2.00;;;;;;;0.20;73.38;101522.59;5052434;28;20048;-70
2022/04/02 04:55:06;;;;;;;3.88;1.95;;;;;;;0.23;73.08;101537.28;5052448;28;20040;-70
2022/04/02 04:57:31;;;;;;;2.92;1.88;;;;;;;0.22;72.37;101530.38;5052076;28;20075;-70
2022/04/02 04:59:57;;;;;;;1.70;1.48;;;;;;;0.23;72.32;101532.03;5052357;28;20101;-70
2022/04/02 05:02:22;;;;;;;2.55;2.10;;;;;;;0.27;72.33;101545.78;5052245;28;20427;-70
2022/04/02 05:04:48;;;;;;;5.45;2.38;;;;;;;0.30;72.36;101545.56;5052143;28;20036;-70
2022/04/02 05:07:14;;;;;;;3.22;2.50;;;;;;;0.28;72.07;101540.41;5050890;28;20504;-70
2022/04/02 05:09:42;;;;;;;8.02;2.50;;;;;;;0.34;71.86;101545.22;5052265;28;20447;-70
2022/04/02 05:12:08;;;;;;;3.72;1.85;;;;;;;0.33;72.25;101555.81;5052157;28;20083;-70
2022/04/02 05:14:35;;;;;;;8.27;2.88;;;;;;;0.34;71.71;101552.22;5052050;28;20041;-70
2022/04/02 05:17:00;;;;;;;5.32;2.30;;;;;;;0.34;71.03;101553.09;5050475;28;20119;-69
2022/04/02 05:19:26;;;;;;;3.33;2.15;;;;;;;0.42;70.42;101555.16;5050308;28;20109;-70
2022/04/02 05:21:51;;;;;;;3.70;2.85;;;;;;;0.40;70.67;101543.94;5051869;28;20031;-69
2022/04/02 05:24:17;;;;;;;4.05;2.03;;;;;;;0.44;71.20;101554.06;5051804;28;20076;-70
2022/04/02 05:26:42;;;;;;;3.78;1.88;;;;;;;0.49;71.07;101569.47;5051473;28;20025;-70
2022/04/02 05:29:10;;;;;;;7.10;2.90;;;;;;;0.45;71.41;101568.03;5051463;28;20040;-70
2022/04/02 05:31:36;;;;;;;5.68;2.65;;;;;;;0.48;71.10;101574.84;5050050;28;20088;-70
2022/04/02 05:34:01;;;;;;;8.52;3.28;;;;;;;0.50;71.12;101578.16;5051310;28;20035;-70
2022/04/02 05:36:26;;;;;;;4.63;2.33;;;;;;;0.49;70.38;101579.13;5051432;28;20029;-70
2022/04/02 05:38:52;;;;;;;4.65;2.25;;;;;;;0.54;70.53;101580.47;5051426;28;20064;-70
2022/04/02 05:41:18;;;;;;;5.93;2.90;;;;;;;0.57;70.44;101589.91;5051099;28;20049;-70
2022/04/02 05:43:43;;;;;;;3.47;1.73;;;;;;;0.62;69.88;101590.41;5051450;28;20169;-70
2022/04/02 05:46:11;;;;;;;4.82;2.67;;;;;;;0.64;70.43;101588.50;5051309;28;20507;-70
2022/04/02 05:48:36;;;;;;;3.03;2.05;;;;;;;0.65;70.53;101596.28;5049896;28;20619;-70
2022/04/02 05:51:01;;;;;;;5.45;2.33;;;;;;;0.64;70.24;101589.34;5051240;28;20111;-70
2022/04/02 05:53:27;;;;;;;2.35;1.55;;;;;;;0.68;69.77;101589.94;5049699;28;20037;-70
2022/04/02 05:55:53;;;;;;;4.57;2.03;;;;;;;0.69;69.90;101594.25;5050983;28;20021;-70
2022/04/02 05:58:19;;;;;;;4.18;2.10;;;;;;;0.76;69.59;101599.88;5050970;28;20633;-70
2022/04/02 06:00:44;;;;;;;5.80;2.38;;;;;;;0.71;69.32;101592.34;5050899;28;20078;-70
2022/04/02 06:03:09;;;;;;;4.38;1.80;;;;;;;0.82;69.44;101609.94;5050990;28;20435;-70
2022/04/02 06:05:36;;;;;;;3.55;1.83;;;;;;;0.86;69.48;101614.84;5050847;28;20094;-70
2022/04/02 06:08:01;;;;;;;4.75;2.38;;;;;;;0.86;68.94;101616.63;5050747;28;20115;-70
2022/04/02 06:10:27;;;;;;;3.17;1.70;;;;;;;0.93;68.66;101620.47;5050771;28;20152;-70
2022/04/02 06:12:52;;;;;;;5.00;2.00;;;;;;;0.94;68.72;101616.88;5050754;28;20485;-70
2022/04/02 06:15:18;;;;;;;6.15;2.50;;;;;;;0.97;69.30;101619.28;5050288;28;20027;-70
2022/04/02 06:17:43;;;;;;;3.50;2.28;;;;;;;1.03;68.41;101636.38;5050677;28;20048;-70
2022/04/02 06:20:09;;;;;;;3.17;2.22;;;;;;;1.05;68.64;101623.97;5050668;28;20036;-70
2022/04/02 06:22:36;;;;;;;6.90;2.65;;;;;;;1.05;67.84;101623.97;5050678;28;20021;-70
2022/04/02 06:25:02;;;;;;;3.75;2.00;;;;;;;0.98;67.91;101625.38;5050334;28;20024;-70
2022/04/02 06:27:27;;;;;;;5.53;2.40;;;;;;;1.15;68.06;101637.22;5050024;28;20111;-70
2022/04/02 06:29:52;;;;;;;3.30;1.52;;;;;;;1.18;67.36;101648.38;5050207;28;20116;-70
2022/04/02 06:32:20;;;;;;;3.97;1.60;;;;;;;1.07;67.75;101629.91;5049749;28;20373;-70
2022/04/02 06:34:46;;;;;;;4.82;1.83;;;;;;;1.21;67.73;101653.38;5050271;28;20037;-70
2022/04/02 06:37:11;;;;;;;4.35;2.08;;;;;;;1.25;67.75;101659.22;5050346;28;20388;-70
2022/04/02 06:39:37;;;;;;;6.63;2.47;;;;;;;1.28;67.76;101664.25;5050323;28;20031;-70
2022/04/02 06:42:03;;;;;;;2.85;1.77;;;;;;;1.30;66.87;101651.84;5050042;28;20049;-69
2022/04/02 06:44:29;;;;;;;4.38;1.70;;;;;;;1.33;67.90;101662.09;5050245;28;20080;-71
2022/04/02 06:46:56;;;;;;;3.95;1.63;;;;;;;1.39;66.67;101660.81;5049916;28;20021;-69
2022/04/02 06:49:21;;;;;;;5.30;2.00;;;;;;;1.33;66.97;101659.47;5048763;28;20393;-70
2022/04/02 06:51:47;;;;;;;5.82;2.72;;;;;;;1.41;66.25;101666.78;5050212;28;20070;-70
2022/04/02 06:54:12;;;;;;;3.92;2.30;;;;;;;1.38;66.69;101670.47;5050143;28;20032;-70
2022/04/02 06:56:37;;;;;;;4.18;2.38;;;;;;;1.41;67.51;101678.13;5049859;28;20913;-70
2022/04/02 06:59:03;;;;;;;9.77;2.90;;;;;;;1.43;66.75;101680.66;5049931;28;20126;-70
2022/04/02 07:01:28;;;;;;;3.03;2.20;;;;;;;1.46;66.21;101676.00;5049814;28;20502;-70
2022/04/02 07:03:54;;;;;;;4.72;2.45;;;;;;;1.49;66.93;101681.03;5049855;28;20110;-72
2022/04/02 07:06:19;;;;;;;5.10;2.58;;;;;;;1.44;67.18;101667.41;5049874;28;20124;-68
2022/04/02 07:08:44;;;;;;;3.83;2.10;;;;;;;1.60;66.25;101679.34;5049771;28;20550;-68
2022/04/02 07:11:09;;;;;;;2.33;1.77;;;;;;;1.60;67.40;101696.00;5049828;28;20430;-68
2022/04/02 07:13:35;;;;;;;3.95;2.65;;;;;;;1.67;66.86;101699.81;5049752;28;20136;-70
2022/04/02 07:16:02;;;;;;;8.05;3.08;;;;;;;1.67;67.34;101693.72;5049514;28;20170;-70
2022/04/02 07:18:27;;;;;;;5.85;2.42;;;;;;;1.71;66.23;101693.38;5049720;28;20116;-70
2022/04/02 07:20:56;;;;;;;7.35;2.83;;;;;;;1.74;67.70;101698.38;5049595;28;20115;-70
2022/04/02 07:23:21;;;;;;;6.97;2.53;;;;;;;1.81;66.48;101713.69;5049486;28;20083;-70
2022/04/02 07:25:49;;;;;;;7.65;2.28;;;;;;;1.75;66.41;101701.84;5049531;28;20032;-70
2022/04/02 07:28:15;;;;;;;4.25;2.38;;;;;;;1.82;66.78;101710.94;5049777;28;20128;-70
2022/04/02 07:30:40;;;;;;;3.70;2.17;;;;;;;1.89;66.98;101717.41;5049392;28;20447;-69
2022/04/02 07:33:06;;;;;;;4.63;2.80;;;;;;;1.91;66.59;101712.88;5049284;28;20052;-71
2022/04/02 07:35:44;;;;;;;4.32;2.08;;;;;;;2.09;66.13;101722.91;5049200;28;20064;-71
2022/04/02 07:38:16;;;;;;;6.32;3.25;;;;;;;2.12;66.05;101723.53;5049226;28;20099;-70
2022/04/02 07:40:51;;;;;;;3.78;2.42;;;;;;;2.11;66.97;101711.31;5048548;28;20033;-70
2022/04/02 07:43:46;;;;;;;7.70;3.88;;;;;;;2.36;67.85;101735.72;5049080;28;20125;-69
2022/04/02 07:46:23;;;;;;;6.50;3.35;;;;;;;2.42;66.65;101730.78;5049014;28;20033;-71
2022/04/02 07:48:49;;;;;;;6.10;2.45;;;;;;;2.41;66.47;101736.16;5049228;28;20021;-70
2022/04/02 07:51:18;;;;;;;3.80;2.65;;;;;;;2.34;66.61;101727.91;5049220;28;20435;-70
2022/04/02 07:53:48;;;;;;;4.60;2.80;;;;;;;2.35;67.09;101734.84;5049009;28;20465;-70
2022/04/02 07:56:25;;;;;;;6.55;2.55;;;;;;;2.50;66.80;101743.34;5047618;28;20107;-70
2022/04/02 07:58:52;;;;;;;5.40;2.50;;;;;;;2.62;66.59;101737.09;5049195;28;20033;-70
2022/04/02 08:01:19;;;;;;;3.78;2.58;;;;;;;2.79;66.66;101748.06;5049166;28;20020;-70
2022/04/02 08:03:46;;;;;;;5.15;2.78;;;;;;;2.96;65.53;101751.97;5049094;28;20033;-70
2022/04/02 08:06:14;;;;;;;6.30;3.42;;;;;;;2.94;65.78;101746.84;5049031;28;20066;-70
2022/04/02 08:08:41;;;;;;;5.85;3.10;;;;;;;2.95;66.90;101752.94;5049060;28;20056;-70
2022/04/02 08:11:08;;;;;;;6.75;3.42;;;;;;;3.02;66.21;101743.56;5049091;28;20036;-70
2022/04/02 08:13:36;;;;;;;3.20;2.15;;;;;;;3.10;65.71;101745.59;5049046;28;20032;-70
2022/04/02 08:16:01;;;;;;;4.03;2.58;;;;;;;3.40;66.00;101750.94;5048988;28;20021;-70
2022/04/02 08:18:27;;;;;;;4.72;3.25;;;;;;;4.03;64.06;101744.81;5048664;28;20052;-70
2022/04/02 08:20:54;;;;;;;5.00;2.28;;;;;;;4.14;63.95;101748.22;5048846;28;20029;-70
2022/04/02 08:23:20;;;;;;;10.98;3.47;;;;;;;3.87;63.36;101763.75;5048974;28;20124;-70
2022/04/02 08:26:30;;;;;;;5.28;2.97;;;;;;;3.86;63.89;101760.28;5048708;28;20103;-70
2022/04/02 08:29:16;;;;;;;7.55;3.75;;;;;;;3.97;65.42;101766.44;5042714;28;20055;-70
2022/04/02 08:32:02;;;;;;;6.65;3.45;;;;;;;3.93;64.44;101761.44;5048773;28;20036;-70
2022/04/02 08:35:01;;;;;;;7.85;4.00;;;;;;;3.77;64.71;101753.13;5048685;28;20048;-70
2022/04/02 08:37:58;;;;;;;5.82;2.70;;;;;;;3.64;65.54;101768.31;5048509;28;20036;-70
2022/04/02 08:40:32;;;;;;;7.47;3.38;;;;;;;3.41;65.49;101765.81;5048651;28;20025;-70
2022/04/02 08:43:16;;;;;;;5.75;3.40;;;;;;;3.12;67.02;101770.84;5048749;28;20057;-70
2022/04/02 08:46:32;;;;;;;5.22;3.65;;;;;;;3.23;66.69;101777.88;5048608;28;20469;-70
2022/04/02 08:49:07;;;;;;;4.93;3.38;;;;;;;3.32;66.17;101768.38;5048689;28;20451;-72
2022/04/02 08:51:41;;;;;;;7.97;4.03;;;;;;;3.23;66.74;101772.63;5049875;28;20036;-70
2022/04/02 08:54:20;;;;;;;5.57;3.13;;;;;;;3.16;67.01;101779.34;5052316;28;20024;-70
2022/04/02 08:56:48;;;;;;;9.77;4.47;;;;;;;3.14;66.03;101783.91;5052050;28;20051;-70
2022/04/02 08:59:33;;;;;;;6.53;3.60;;;;;;;3.16;66.53;101788.06;5052209;28;20037;-71
2022/04/02 09:02:13;;;;;;;6.05;3.65;;;;;;;3.23;65.99;101777.88;5052249;28;20371;-70
2022/04/02 09:05:08;;;;;;;7.68;4.07;;;;;;;3.38;66.40;101794.22;5052101;28;20056;-70
2022/04/02 09:08:15;;;;;;;7.13;3.80;;;;;;;3.53;66.30;101784.22;5050356;28;20481;-71
2022/04/02 09:11:05;;;;;;;8.15;4.20;;;;;;;3.63;65.70;101804.41;5051978;28;20036;-70
2022/04/02 09:13:33;;;;;;;8.27;3.78;;;;;;;3.80;66.29;101796.88;5040639;28;20037;-70
2022/04/02 09:16:11;;;;;;;8.52;4.20;;;;;;;3.91;64.97;101807.41;5051877;28;20040;-70
2022/04/02 09:18:36;;;;;;;6.43;3.42;;;;;;;3.76;64.30;101804.22;5051777;28;20086;-70
2022/04/02 09:21:20;;;;;;;6.22;3.22;;;;;;;3.71;64.64;101811.69;5051833;28;20032;-68
2022/04/02 09:23:52;;;;;;;6.63;3.60;;;;;;;3.65;64.18;101805.13;5051891;28;20024;-70
2022/04/02 09:26:46;;;;;;;6.18;3.92;;;;;;;3.50;64.32;101823.06;5051797;28;20020;-70
2022/04/02 09:29:17;;;;;;;9.77;4.00;;;;;;;3.45;64.71;101813.84;5051739;28;20025;-70
2022/04/02 09:32:04;;;;;;;8.77;3.97;;;;;;;3.59;66.53;101807.44;5051864;28;20036;-70
2022/04/02 09:34:38;;;;;;;8.30;3.65;;;;;;;3.78;64.77;101819.94;5051728;28;20276;-70
2022/04/02 09:37:31;;;;;;;5.95;3.63;;;;;;;3.76;64.09;101827.97;5051419;28;20029;-70
2022/04/02 09:40:08;;;;;;;9.68;5.95;;;;;;;3.50;64.42;101817.78;5051296;28;20025;-70
2022/04/02 09:42:51;;;;;;;7.80;3.17;;;;;;;3.54;64.65;101821.03;5051367;28;20061;-70
2022/04/02 09:45:22;;;;;;;5.28;2.70;;;;;;;3.48;64.70;101819.75;5051440;28;20028;-70
2022/04/02 09:47:51;;;;;;;8.73;2.47;;;;;;;3.45;64.19;101824.41;5051263;28;20171;-70
2022/04/02 09:50:23;;;;;;;5.65;3.35;;;;;;;3.39;63.37;101820.47;5051347;28;20029;-70
2022/04/02 09:52:55;;;;;;;5.60;3.53;;;;;;;3.31;63.72;101815.00;5051237;28;20031;-70
2022/04/02 09:55:22;;;;;;;7.00;3.40;;;;;;;3.35;63.85;101826.13;5051134;28;20025;-70
2022/04/02 09:57:56;;;;;;;5.70;3.42;;;;;;;3.34;63.88;101822.66;5050874;28;20037;-69
2022/04/02 10:00:53;;;;;;;5.03;3.40;;;;;;;3.29;63.55;101820.38;5051149;28;20029;-70
2022/04/02 10:03:31;;;;;;;4.15;3.20;;;;;;;3.27;64.39;101819.69;5047015;28;20136;-70
2022/04/02 10:06:21;;;;;;;5.28;3.40;;;;;;;3.41;63.78;101813.28;5051151;28;20060;-70
2022/04/02 10:09:12;;;;;;;7.25;3.67;;;;;;;3.50;63.44;101812.50;5050887;28;20021;-70
2022/04/02 10:11:51;;;;;;;;;;;;;;;3.66;63.50;101813.88;5051449;28;20175;-70
2022/04/02 10:14:19;;;;;;;7.60;3.78;;;;;;;3.91;63.11;101810.88;5051016;28;19955;-70
2022/04/02 10:16:49;;;;;;;5.78;3.30;;;;;;;4.16;60.50;101814.06;5050557;28;20106;-70
2022/04/02 10:19:17;;;;;;;8.93;3.40;;;;;;;4.37;59.46;101800.81;5050604;28;20124;-70
2022/04/02 10:21:48;;;;;;;5.80;3.25;;;;;;;4.56;60.63;101810.66;5049176;28;20029;-70
2022/04/02 10:24:21;;;;;;;8.05;3.20;;;;;;;4.55;57.51;101801.03;5050595;28;20037;-70
2022/04/02 10:26:55;;;;;;;4.85;2.85;;;;;;;4.43;56.22;101786.22;5050418;28;20021;-70
2022/04/02 10:29:54;;;;;;;5.82;3.08;;;;;;;4.47;56.17;101796.41;5050620;28;20078;-70
2022/04/02 10:32:44;;;;;;;4.72;2.50;;;;;;;4.35;57.40;101803.59;5050537;28;20361;-70
2022/04/02 10:35:13;;;;;;;2.38;1.80;;;;;;;4.42;57.40;101787.22;5050449;28;20519;-70
2022/04/02 10:37:42;;;;;;;5.43;3.17;;;;;;;4.50;57.32;101795.31;5050481;28;20029;-70
2022/04/02 10:40:11;;;;;;;6.25;2.97;;;;;;;4.66;55.64;101800.91;5050087;28;20021;-70
2022/04/02 10:42:41;;;;;;;7.13;2.70;;;;;;;4.73;55.17;101791.50;5050167;28;20080;-70
2022/04/02 10:45:14;;;;;;;7.43;3.13;;;;;;;4.84;52.92;101794.00;5048929;28;20033;-70
2022/04/02 10:47:47;;;;;;;5.78;2.67;;;;;;;4.93;57.66;101784.44;5050032;28;20094;-69
2022/04/02 10:50:17;;;;;;;6.65;2.78;;;;;;;4.90;56.83;101791.78;5050103;28;20479;-70
2022/04/02 10:52:46;;;;;;;4.57;2.90;;;;;;;4.95;56.23;101797.50;5049921;28;20384;-70
2022/04/02 10:55:15;;;;;;;6.28;2.60;;;;;;;4.84;59.56;101788.72;5049946;28;20021;-70
2022/04/02 10:57:40;;;;;;;6.47;3.20;;;;;;;4.75;56.76;101797.47;5049736;28;20549;-70
2022/04/02 11:00:08;;;;;;;4.90;2.60;;;;;;;4.66;58.64;101787.69;5049722;28;20158;-70
2022/04/02 11:02:49;;;;;;;5.97;3.10;;;;;;;4.64;57.69;101797.59;5049259;28;20037;-70
2022/04/02 11:05:16;;;;;;;6.35;3.00;;;;;;;4.65;59.27;101783.41;5049612;28;20028;-70
2022/04/02 11:07:44;;;;;;;6.60;4.03;;;;;;;4.71;58.20;101785.50;5049532;28;20384;-70
2022/04/02 11:10:21;;;;;;;7.50;3.30;;;;;;;4.62;56.22;101794.25;5049842;28;20032;-70
2022/04/02 11:12:48;;;;;;;7.20;2.92;;;;;;;4.50;56.45;101790.03;5049777;28;20043;-70
2022/04/02 11:15:19;;;;;;;6.13;3.35;;;;;;;4.36;57.54;101788.59;5049245;28;20029;-70
2022/04/02 11:17:49;;;;;;;7.20;3.72;;;;;;;4.27;57.08;101795.50;5049510;28;20037;-70
2022/04/02 11:20:17;;;;;;;4.88;3.30;;;;;;;4.18;57.60;101793.66;5049299;28;20928;-70
2022/04/02 11:22:51;;;;;;;4.97;3.17;;;;;;;4.20;56.12;101791.72;5049532;28;20025;-70
2022/04/02 11:25:19;;;;;;;6.55;3.30;;;;;;;4.32;54.77;101798.59;5049331;28;20112;-70
2022/04/02 11:27:50;;;;;;;4.80;2.28;;;;;;;4.35;54.36;101785.13;5049326;28;20094;-70
2022/04/02 11:30:17;;;;;;;7.30;3.05;;;;;;;4.52;55.68;101793.38;5049299;28;20070;-70
2022/04/02 11:32:45;;;;;;;4.85;2.33;;;;;;;4.83;53.66;101779.13;5047969;28;20526;-70
2022/04/02 11:35:17;;;;;;;4.90;2.08;;;;;;;5.03;51.40;101795.00;5048628;28;20021;-70
2022/04/02 11:38:20;;;;;;;2.58;2.05;;;;;;;4.88;50.53;101785.84;5048416;28;20071;-70
2022/04/02 11:41:12;;;;;;;5.28;2.80;;;;;;;4.81;50.22;101796.94;5049493;28;20032;-70
2022/04/02 11:43:41;;;;;;;4.40;2.72;;;;;;;4.75;52.00;101805.41;5049290;28;20051;-70
2022/04/02 11:46:10;;;;;;;5.72;3.10;;;;;;;4.69;52.29;101794.53;5049059;28;20124;-70
2022/04/02 11:48:49;;;;;;;6.93;2.92;;;;;;;4.65;51.93;101798.44;5049173;28;20017;-70
2022/04/02 11:51:17;;;;;;;5.10;2.53;;;;;;;4.63;54.55;101798.53;5048831;28;20051;-70